createdAt,value
2018-09-18T00:00:41.210Z,100.00
2018-09-18T00:03:10.328Z,100.00
2018-09-18T00:05:39.656Z,100.00
2018-09-18T00:08:08.732Z,100.00
2018-09-18T00:10:37.836Z,100.00
2018-09-18T00:13:07.043Z,100.00
2018-09-18T00:15:36.169Z,100.00
2018-09-18T00:18:05.237Z,100.00
2018-09-18T00:20:34.376Z,100.00
2018-09-18T00:23:03.586Z,100.00
2018-09-18T00:25:32.736Z,100.00
2018-09-18T00:28:01.926Z,100.00
2018-09-18T00:30:30.998Z,100.00
2018-09-18T00:33:00.063Z,100.00
2018-09-18T00:35:29.175Z,100.00
2018-09-18T00:37:58.255Z,100.00
2018-09-18T00:40:27.360Z,100.00
2018-09-18T00:42:56.420Z,100.00
2018-09-18T00:45:25.580Z,100.00
2018-09-18T00:47:54.665Z,100.00
2018-09-18T00:50:23.945Z,100.00
2018-09-18T00:52:52.990Z,100.00
2018-09-18T00:55:22.594Z,100.00
2018-09-18T00:57:51.813Z,100.00
2018-09-18T01:00:20.885Z,100.00
2018-09-18T01:02:50.001Z,100.00
2018-09-18T01:05:20.562Z,100.00
2018-09-18T01:07:49.720Z,100.00
2018-09-18T01:10:20.590Z,100.00
2018-09-18T01:12:49.815Z,100.00
2018-09-18T01:15:19.123Z,100.00
2018-09-18T01:17:48.805Z,100.00
2018-09-18T01:20:20.130Z,100.00
2018-09-18T01:22:49.632Z,100.00
2018-09-18T01:25:23.835Z,100.00
2018-09-18T01:27:53.211Z,100.00
2018-09-18T01:30:30.041Z,100.00
2018-09-18T01:33:02.194Z,100.00
2018-09-18T01:35:32.502Z,100.00
2018-09-18T01:38:01.647Z,100.00
2018-09-18T01:40:30.849Z,100.00
2018-09-18T01:44:42.818Z,100.00
2018-09-18T01:47:26.398Z,100.00
2018-09-18T01:49:56.731Z,100.00
2018-09-18T01:52:27.896Z,100.00
2018-09-18T01:54:57.082Z,100.00
2018-09-18T01:57:26.544Z,100.00
2018-09-18T01:59:55.707Z,100.00
2018-09-18T02:02:24.980Z,100.00
2018-09-18T02:04:54.077Z,100.00
2018-09-18T02:07:23.109Z,100.00
2018-09-18T02:09:52.285Z,100.00
2018-09-18T02:12:21.288Z,100.00
2018-09-18T02:14:50.384Z,100.00
2018-09-18T02:17:19.511Z,100.00
2018-09-18T02:19:49.028Z,100.00
2018-09-18T02:22:18.110Z,100.00
2018-09-18T02:24:47.600Z,100.00
2018-09-18T02:27:16.641Z,100.00
2018-09-18T02:29:46.079Z,100.00
2018-09-18T02:32:15.254Z,100.00
2018-09-18T02:34:44.314Z,100.00
2018-09-18T02:37:13.373Z,100.00
2018-09-18T02:39:42.491Z,100.00
2018-09-18T02:42:11.489Z,100.00
2018-09-18T02:44:40.503Z,100.00
2018-09-18T02:47:09.584Z,100.00
2018-09-18T02:49:38.600Z,100.00
2018-09-18T02:52:08.025Z,100.00
2018-09-18T02:54:37.099Z,100.00
2018-09-18T02:57:06.143Z,100.00
2018-09-18T02:59:35.189Z,100.00
2018-09-18T03:02:04.445Z,100.00
2018-09-18T03:04:33.439Z,100.00
2018-09-18T03:07:02.422Z,100.00
2018-09-18T03:09:31.468Z,100.00
2018-09-18T03:12:00.546Z,100.00
2018-09-18T03:14:29.557Z,100.00
2018-09-18T03:16:58.588Z,100.00
2018-09-18T03:19:27.669Z,100.00
2018-09-18T03:21:56.721Z,100.00
2018-09-18T03:24:25.780Z,100.00
2018-09-18T03:26:54.806Z,100.00
2018-09-18T03:29:23.920Z,100.00
2018-09-18T03:31:53.350Z,100.00
2018-09-18T03:34:22.529Z,100.00
2018-09-18T03:36:52.031Z,100.00
2018-09-18T03:39:21.117Z,100.00
2018-09-18T03:41:50.113Z,100.00
2018-09-18T03:44:19.097Z,100.00
2018-09-18T03:46:48.662Z,100.00
2018-09-18T03:49:17.678Z,100.00
2018-09-18T03:51:47.202Z,100.00
2018-09-18T03:54:16.297Z,100.00
2018-09-18T03:56:45.629Z,100.00
2018-09-18T03:59:14.671Z,100.00
2018-09-18T04:01:43.693Z,100.00
2018-09-18T04:04:12.688Z,100.00
2018-09-18T04:06:41.719Z,100.00
2018-09-18T04:09:12.055Z,100.00
2018-09-18T04:11:41.713Z,100.00
2018-09-18T04:14:10.825Z,100.00
2018-09-18T04:16:40.343Z,100.00
2018-09-18T04:19:09.366Z,100.00
2018-09-18T04:21:43.748Z,100.00
2018-09-18T04:24:12.891Z,100.00
2018-09-18T04:26:42.348Z,100.00
2018-09-18T04:29:11.382Z,100.00
2018-09-18T04:31:41.401Z,100.00
2018-09-18T04:34:10.375Z,100.00
2018-09-18T04:36:39.445Z,100.00
2018-09-18T04:39:11.153Z,100.00
2018-09-18T04:41:40.183Z,100.00
2018-09-18T04:44:09.677Z,100.00
2018-09-18T04:46:38.677Z,100.00
2018-09-18T04:49:07.929Z,100.00
2018-09-18T04:51:37.005Z,100.00
2018-09-18T04:54:06.044Z,100.00
2018-09-18T04:56:35.801Z,100.00
2018-09-18T04:59:04.976Z,100.00
2018-09-18T05:01:34.366Z,100.00
2018-09-18T05:04:03.454Z,100.00
2018-09-18T05:06:32.504Z,100.00
2018-09-18T05:09:01.647Z,100.00
2018-09-18T05:11:30.748Z,100.00
2018-09-18T05:13:59.792Z,100.00
2018-09-18T05:16:28.829Z,100.00
2018-09-18T05:18:57.940Z,100.00
2018-09-18T05:21:27.034Z,100.00
2018-09-18T05:23:57.336Z,100.00
2018-09-18T05:26:30.095Z,100.00
2018-09-18T05:28:59.212Z,100.00
2018-09-18T05:31:29.990Z,100.00
2018-09-18T05:33:59.044Z,100.00
2018-09-18T05:36:50.216Z,100.00
2018-09-18T05:39:19.397Z,100.00
2018-09-18T05:41:48.945Z,100.00
2018-09-18T05:44:18.265Z,100.00
2018-09-18T05:46:48.300Z,100.00
2018-09-18T05:49:18.455Z,100.00
2018-09-18T05:51:48.213Z,100.00
2018-09-18T05:54:17.551Z,100.00
2018-09-18T05:56:46.984Z,100.00
2018-09-18T05:59:22.059Z,100.00
2018-09-18T06:01:51.227Z,100.00
2018-09-18T06:04:20.359Z,100.00
2018-09-18T06:06:49.518Z,100.00
2018-09-18T06:09:18.527Z,97.61
2018-09-18T06:11:48.088Z,92.95
2018-09-18T06:14:17.232Z,89.59
2018-09-18T06:16:46.799Z,88.80
2018-09-18T06:19:15.862Z,89.69
2018-09-18T06:21:45.007Z,90.30
2018-09-18T06:24:16.974Z,91.27
2018-09-18T06:26:46.446Z,91.74
2018-09-18T06:29:15.498Z,91.92
2018-09-18T06:31:44.660Z,91.01
2018-09-18T06:34:13.749Z,88.39
2018-09-18T06:36:42.884Z,84.40
2018-09-18T06:39:12.598Z,80.14
2018-09-18T06:41:42.025Z,77.58
2018-09-18T06:44:12.005Z,76.89
2018-09-18T06:46:40.997Z,74.48
2018-09-18T06:49:10.085Z,71.77
2018-09-18T06:51:39.190Z,73.56
2018-09-18T06:54:08.462Z,74.51
2018-09-18T06:56:37.612Z,73.15
2018-09-18T06:59:06.624Z,73.25
2018-09-18T07:01:35.706Z,71.83
2018-09-18T07:04:04.777Z,69.40
2018-09-18T07:06:33.769Z,70.43
2018-09-18T07:09:02.808Z,74.17
2018-09-18T07:11:32.088Z,77.14
2018-09-18T07:14:01.370Z,78.85
2018-09-18T07:16:30.562Z,78.64
2018-09-18T07:18:59.693Z,79.73
2018-09-18T07:21:28.774Z,79.96
2018-09-18T07:23:57.819Z,79.44
2018-09-18T07:26:26.898Z,80.90
2018-09-18T07:28:56.337Z,81.16
2018-09-18T07:31:25.350Z,80.08
2018-09-18T07:33:54.493Z,79.33
2018-09-18T07:36:23.518Z,80.14
2018-09-18T07:38:52.514Z,79.69
2018-09-18T07:41:21.624Z,75.54
2018-09-18T07:43:50.729Z,70.43
2018-09-18T07:46:19.726Z,69.12
2018-09-18T07:48:52.257Z,69.84
2018-09-18T07:51:21.367Z,69.11
2018-09-18T07:53:50.839Z,64.28
2018-09-18T07:56:20.436Z,65.06
2018-09-18T07:58:50.680Z,61.08
2018-09-18T08:01:19.737Z,55.88
2018-09-18T08:03:49.570Z,55.10
2018-09-18T08:06:18.590Z,53.27
2018-09-18T08:08:48.025Z,50.88
2018-09-18T08:11:17.106Z,51.08
2018-09-18T08:13:46.549Z,50.59
2018-09-18T08:16:15.560Z,50.76
2018-09-18T08:18:44.676Z,52.20
2018-09-18T08:21:13.871Z,55.17
2018-09-18T08:23:42.948Z,56.45
2018-09-18T08:26:12.048Z,57.35
2018-09-18T08:28:41.050Z,58.13
2018-09-18T08:31:10.050Z,56.73
2018-09-18T08:33:39.389Z,57.13
2018-09-18T08:36:08.454Z,54.47
2018-09-18T08:38:37.513Z,53.38
2018-09-18T08:41:06.741Z,55.27
2018-09-18T08:43:35.814Z,54.21
2018-09-18T08:46:05.023Z,54.98
2018-09-18T08:48:33.955Z,54.12
2018-09-18T08:51:03.078Z,54.01
2018-09-18T08:53:33.004Z,54.13
2018-09-18T08:56:02.117Z,55.30
2018-09-18T08:58:31.153Z,54.19
2018-09-18T09:01:00.172Z,55.82
2018-09-18T09:03:29.209Z,53.35
2018-09-18T09:05:58.220Z,52.67
2018-09-18T09:08:27.269Z,52.63
2018-09-18T09:10:56.351Z,50.84
2018-09-18T09:13:25.363Z,51.22
2018-09-18T09:15:54.412Z,51.32
2018-09-18T09:18:23.593Z,48.55
2018-09-18T09:20:52.682Z,50.87
2018-09-18T09:23:21.643Z,47.75
2018-09-18T09:25:50.628Z,48.25
2018-09-18T09:28:19.611Z,45.48
2018-09-18T09:30:49.109Z,45.83
2018-09-18T09:33:18.151Z,47.45
2018-09-18T09:35:47.481Z,51.31
2018-09-18T09:38:16.512Z,49.93
2018-09-18T09:40:45.843Z,49.44
2018-09-18T09:43:16.395Z,48.37
2018-09-18T09:46:26.243Z,50.97
2018-09-18T09:49:35.394Z,56.95
2018-09-18T09:52:04.421Z,58.55
2018-09-18T09:54:34.519Z,58.97
2018-09-18T09:57:04.454Z,59.45
2018-09-18T09:59:33.724Z,56.33
2018-09-18T10:02:08.107Z,51.12
2018-09-18T10:04:37.126Z,51.73
2018-09-18T10:07:06.989Z,50.96
2018-09-18T10:09:36.738Z,50.34
2018-09-18T10:12:06.346Z,48.60
2018-09-18T10:14:35.778Z,46.18
2018-09-18T10:17:04.906Z,46.03
2018-09-18T10:19:33.911Z,46.49
2018-09-18T10:22:02.958Z,45.46
2018-09-18T10:24:31.993Z,42.74
2018-09-18T10:27:01.112Z,43.59
2018-09-18T10:29:30.010Z,47.26
2018-09-18T10:31:59.011Z,45.64
2018-09-18T10:34:28.049Z,46.37
2018-09-18T10:36:57.081Z,45.07
2018-09-18T10:39:26.086Z,43.38
2018-09-18T10:41:55.211Z,45.01
2018-09-18T10:44:24.179Z,42.15
2018-09-18T10:46:53.233Z,39.86
2018-09-18T10:49:22.236Z,41.95
2018-09-18T10:51:51.356Z,48.66
2018-09-18T10:54:20.459Z,49.63
2018-09-18T10:56:50.403Z,48.21
2018-09-18T10:59:19.490Z,46.96
2018-09-18T11:01:48.802Z,44.64
2018-09-18T11:04:17.872Z,42.82
2018-09-18T11:06:47.293Z,44.94
2018-09-18T11:09:16.613Z,47.65
2018-09-18T11:11:46.721Z,49.65
2018-09-18T11:14:17.600Z,50.56
2018-09-18T11:16:47.305Z,50.83
2018-09-18T11:19:16.280Z,51.86
2018-09-18T11:21:45.336Z,51.79
2018-09-18T11:24:14.262Z,53.00
2018-09-18T11:26:43.260Z,55.82
2018-09-18T11:29:12.302Z,58.89
2018-09-18T11:31:41.293Z,61.66
2018-09-18T11:34:10.528Z,67.56
2018-09-18T11:36:39.782Z,69.83
2018-09-18T11:39:08.905Z,65.03
2018-09-18T11:41:37.947Z,70.24
2018-09-18T11:44:07.070Z,71.77
2018-09-18T11:46:36.300Z,70.18
2018-09-18T11:49:05.309Z,65.10
2018-09-18T11:51:34.306Z,64.92
2018-09-18T11:54:03.378Z,57.67
2018-09-18T11:56:32.399Z,54.55
2018-09-18T11:59:01.367Z,52.27
2018-09-18T12:01:30.375Z,47.61
2018-09-18T12:03:59.393Z,47.41
2018-09-18T12:06:28.392Z,46.87
2018-09-18T12:08:57.461Z,48.17
2018-09-18T12:11:26.541Z,47.44
2018-09-18T12:13:56.039Z,48.37
2018-09-18T12:16:25.022Z,46.29
2018-09-18T12:18:54.145Z,45.44
2018-09-18T12:21:23.245Z,44.07
2018-09-18T12:23:52.230Z,42.99
2018-09-18T12:26:21.211Z,41.77
2018-09-18T12:28:50.151Z,38.84
2018-09-18T12:31:19.183Z,40.21
2018-09-18T12:33:48.677Z,41.54
2018-09-18T12:36:17.622Z,43.11
2018-09-18T12:38:47.205Z,44.77
2018-09-18T12:41:16.216Z,46.82
2018-09-18T12:43:45.665Z,47.74
2018-09-18T12:46:14.930Z,48.12
2018-09-18T12:54:40.122Z,53.05
2018-09-18T12:57:10.081Z,53.56
2018-09-18T12:59:39.258Z,53.86
2018-09-18T13:02:09.087Z,53.49
2018-09-18T13:04:38.450Z,53.79
2018-09-18T13:07:07.894Z,53.86
2018-09-18T13:09:37.509Z,54.20
2018-09-18T13:12:06.763Z,55.44
2018-09-18T13:14:36.471Z,55.86
2018-09-18T13:17:06.300Z,53.23
2018-09-18T13:19:35.254Z,52.19
2018-09-18T13:22:04.241Z,52.53
2018-09-18T13:24:33.256Z,50.43
2018-09-18T13:27:02.420Z,51.43
2018-09-18T13:29:31.473Z,51.78
2018-09-18T13:32:00.468Z,52.97
2018-09-18T13:34:29.461Z,54.54
2018-09-18T13:36:58.442Z,56.29
2018-09-18T13:39:27.384Z,57.63
2018-09-18T13:41:56.350Z,58.41
2018-09-18T13:44:25.336Z,59.42
2018-09-18T13:46:54.350Z,61.32
2018-09-18T13:49:23.507Z,60.59
2018-09-18T13:51:52.693Z,60.95
2018-09-18T13:54:21.662Z,61.26
2018-09-18T13:56:50.800Z,61.67
2018-09-18T13:59:19.871Z,60.16
2018-09-18T14:01:49.314Z,57.79
2018-09-18T14:04:18.401Z,55.82
2018-09-18T14:06:47.929Z,53.23
2018-09-18T14:09:17.130Z,53.67
2018-09-18T14:11:46.568Z,53.66
2018-09-18T14:14:15.561Z,53.92
2018-09-18T14:16:44.547Z,55.66
2018-09-18T14:19:13.568Z,56.23
2018-09-18T14:21:42.595Z,57.58
2018-09-18T14:24:11.578Z,58.40
2018-09-18T14:26:40.811Z,60.23
2018-09-18T14:29:09.685Z,59.51
2018-09-18T14:31:38.658Z,59.16
2018-09-18T14:34:07.640Z,60.24
2018-09-18T14:36:36.639Z,60.62
2018-09-18T14:39:08.361Z,60.06
2018-09-18T14:41:37.843Z,59.50
2018-09-18T14:44:06.911Z,58.64
2018-09-18T14:46:35.930Z,60.48
2018-09-18T14:49:05.061Z,77.64
2018-09-18T14:51:34.277Z,82.61
2018-09-18T14:54:03.242Z,77.42
2018-09-18T14:56:32.239Z,78.45
2018-09-18T14:59:01.267Z,84.10
2018-09-18T15:01:30.289Z,80.34
2018-09-18T15:03:59.423Z,81.44
2018-09-18T15:06:28.391Z,84.61
2018-09-18T15:08:57.520Z,79.46
2018-09-18T15:11:26.524Z,84.79
2018-09-18T15:13:55.558Z,79.96
2018-09-18T15:16:24.592Z,76.41
2018-09-18T15:18:54.284Z,76.70
2018-09-18T15:21:23.302Z,81.83
2018-09-18T15:23:52.305Z,90.13
2018-09-18T15:26:21.338Z,86.62
2018-09-18T15:28:50.433Z,80.30
2018-09-18T15:31:19.442Z,82.69
2018-09-18T15:33:48.793Z,82.23
2018-09-18T15:36:17.842Z,84.31
2018-09-18T15:38:47.599Z,83.15
2018-09-18T15:41:16.706Z,84.65
2018-09-18T15:43:46.252Z,80.71
2018-09-18T15:46:15.313Z,80.79
2018-09-18T15:48:44.446Z,81.13
2018-09-18T15:51:13.568Z,81.69
2018-09-18T15:53:42.702Z,82.07
2018-09-18T15:56:11.699Z,82.20
2018-09-18T15:58:40.682Z,84.62
2018-09-18T16:01:09.788Z,86.51
2018-09-18T16:03:38.821Z,85.13
2018-09-18T16:06:07.944Z,83.20
2018-09-18T16:08:37.025Z,82.62
2018-09-18T16:11:06.491Z,81.02
2018-09-18T16:13:35.685Z,78.88
2018-09-18T16:16:04.770Z,81.59
2018-09-18T16:18:33.883Z,82.10
2018-09-18T16:21:03.005Z,85.06
2018-09-18T16:23:32.060Z,87.81
2018-09-18T16:26:01.202Z,86.68
2018-09-18T16:28:30.261Z,88.18
2018-09-18T16:30:59.469Z,90.96
2018-09-18T16:33:28.624Z,91.77
2018-09-18T16:35:57.747Z,92.91
2018-09-18T16:38:26.870Z,94.26
2018-09-18T16:40:56.129Z,92.42
2018-09-18T16:43:25.164Z,90.54
2018-09-18T16:45:54.265Z,90.02
2018-09-18T16:48:23.918Z,89.52
2018-09-18T16:50:52.991Z,89.19
2018-09-18T16:53:22.266Z,87.79
2018-09-18T16:55:51.370Z,84.77
2018-09-18T16:58:20.389Z,81.84
2018-09-18T17:00:49.849Z,79.87
2018-09-18T17:03:19.627Z,77.36
2018-09-18T17:05:49.249Z,73.84
2018-09-18T17:08:18.316Z,73.14
2018-09-18T17:10:48.661Z,71.25
2018-09-18T17:13:17.769Z,74.17
2018-09-18T17:15:47.295Z,73.54
2018-09-18T17:18:16.499Z,71.17
2018-09-18T17:20:47.650Z,71.14
2018-09-18T17:23:16.842Z,69.63
2018-09-18T17:25:47.169Z,69.03
2018-09-18T17:28:16.364Z,70.17
2018-09-18T17:30:45.265Z,86.43
2018-09-18T17:33:14.243Z,93.56
2018-09-18T17:35:43.289Z,95.77
2018-09-18T17:38:15.205Z,97.12
2018-09-18T17:40:44.377Z,98.07
2018-09-18T17:43:13.538Z,98.49
2018-09-18T17:45:56.558Z,96.01
2018-09-18T17:48:25.674Z,94.54
2018-09-18T17:50:54.673Z,96.06
2018-09-18T17:53:26.767Z,99.50
2018-09-18T17:55:56.705Z,99.33
2018-09-18T17:58:25.812Z,93.39
2018-09-18T18:00:54.915Z,92.87
2018-09-18T18:03:23.958Z,80.64
2018-09-18T18:05:53.022Z,80.99
2018-09-18T18:08:22.152Z,78.36
2018-09-18T18:10:51.411Z,79.29
2018-09-18T18:13:20.590Z,76.54
2018-09-18T18:15:50.085Z,77.83
2018-09-18T18:18:19.310Z,78.11
2018-09-18T18:20:48.812Z,78.20
2018-09-18T18:23:17.977Z,78.15
2018-09-18T18:25:47.627Z,79.30
2018-09-18T18:28:16.626Z,80.71
2018-09-18T18:30:47.366Z,81.04
2018-09-18T18:33:18.061Z,85.97
2018-09-18T18:35:47.348Z,90.52
2018-09-18T18:38:16.374Z,93.91
2018-09-18T18:40:45.455Z,90.00
2018-09-18T18:43:14.544Z,82.68
2018-09-18T18:45:43.650Z,82.19
2018-09-18T18:48:13.268Z,82.10
2018-09-18T18:50:42.040Z,81.71
2018-09-18T18:53:11.585Z,82.29
2018-09-18T18:55:40.742Z,83.04
2018-09-18T18:58:09.796Z,82.60
2018-09-18T19:00:38.842Z,82.95
2018-09-18T19:03:08.055Z,85.86
2018-09-18T19:05:37.082Z,88.85
2018-09-18T19:08:06.144Z,91.95
2018-09-18T19:10:35.203Z,95.04
2018-09-18T19:13:04.309Z,94.63
2018-09-18T19:15:33.509Z,94.42
2018-09-18T19:18:02.689Z,94.02
2018-09-18T19:20:31.933Z,93.97
2018-09-18T19:23:01.077Z,94.40
2018-09-18T19:25:30.415Z,96.41
2018-09-18T19:27:59.596Z,95.03
2018-09-18T19:30:28.969Z,94.80
2018-09-18T19:32:58.092Z,95.73
2018-09-18T19:35:27.246Z,95.23
2018-09-18T19:37:56.513Z,93.37
2018-09-18T19:40:25.815Z,93.19
2018-09-18T19:42:55.112Z,94.14
2018-09-18T19:45:24.270Z,94.71
2018-09-18T19:47:53.364Z,94.20
2018-09-18T19:50:22.534Z,96.08
2018-09-18T19:52:51.623Z,98.21
2018-09-18T19:55:21.450Z,100.00
2018-09-18T19:57:50.576Z,100.00
2018-09-18T20:00:23.441Z,100.00
2018-09-18T20:02:52.426Z,100.00
2018-09-18T20:05:21.901Z,100.00
2018-09-18T20:07:51.001Z,100.00
2018-09-18T20:10:22.741Z,100.00
2018-09-18T20:13:00.132Z,100.00
2018-09-18T20:15:29.221Z,100.00
2018-09-18T20:17:58.244Z,100.00
2018-09-18T20:20:27.771Z,100.00
2018-09-18T20:22:57.069Z,100.00
2018-09-18T20:25:26.173Z,100.00
2018-09-18T20:27:55.242Z,100.00
2018-09-18T20:30:24.473Z,97.68
2018-09-18T20:32:53.592Z,98.21
2018-09-18T20:35:22.652Z,97.90
2018-09-18T20:37:51.836Z,97.41
2018-09-18T20:40:23.492Z,96.56
2018-09-18T20:42:52.775Z,99.28
2018-09-18T20:45:22.381Z,99.83
2018-09-18T20:47:51.411Z,100.00
2018-09-18T20:50:23.905Z,100.00
2018-09-18T20:52:54.810Z,100.00
2018-09-18T20:55:24.012Z,100.00
2018-09-18T20:57:53.143Z,100.00
2018-09-18T21:00:22.700Z,100.00
2018-09-18T21:02:51.768Z,100.00
2018-09-18T21:05:22.174Z,100.00
2018-09-18T21:07:51.428Z,100.00
2018-09-18T21:10:24.505Z,100.00
2018-09-18T21:12:53.599Z,100.00
2018-09-18T21:15:22.641Z,100.00
2018-09-18T21:17:51.741Z,100.00
2018-09-18T21:20:23.729Z,100.00
2018-09-18T21:22:53.344Z,100.00
2018-09-18T21:25:30.919Z,100.00
2018-09-18T21:28:00.087Z,100.00
2018-09-18T21:30:29.391Z,100.00
2018-09-18T21:32:58.901Z,100.00
2018-09-18T21:35:27.911Z,100.00
2018-09-18T21:37:56.894Z,100.00
2018-09-18T21:40:26.348Z,100.00
2018-09-18T21:42:55.620Z,100.00
2018-09-18T21:45:24.783Z,100.00
2018-09-18T21:47:54.022Z,100.00
2018-09-18T21:50:23.024Z,100.00
2018-09-18T21:52:52.178Z,100.00
2018-09-18T21:55:21.327Z,100.00
2018-09-18T21:57:50.543Z,100.00
2018-09-18T22:00:23.533Z,100.00
2018-09-18T22:09:55.898Z,100.00
2018-09-18T22:12:54.367Z,100.00
2018-09-18T22:15:52.076Z,100.00
2018-09-18T22:18:21.323Z,100.00
2018-09-18T22:20:50.578Z,100.00
2018-09-18T22:23:19.547Z,100.00
2018-09-18T22:25:49.230Z,100.00
2018-09-18T22:28:18.241Z,100.00
2018-09-18T22:30:47.817Z,100.00
2018-09-18T22:33:17.026Z,100.00
2018-09-18T22:35:46.748Z,100.00
2018-09-18T22:38:15.810Z,100.00
2018-09-18T22:40:45.032Z,100.00
2018-09-18T22:43:14.213Z,100.00
2018-09-18T22:45:43.189Z,100.00
2018-09-18T22:48:12.423Z,100.00
2018-09-18T22:50:47.787Z,100.00
2018-09-18T22:53:17.032Z,100.00
2018-09-18T22:55:46.493Z,100.00
2018-09-18T22:58:15.607Z,100.00
2018-09-18T23:00:44.833Z,100.00
2018-09-18T23:03:14.014Z,100.00
2018-09-18T23:05:43.095Z,100.00
2018-09-18T23:08:12.347Z,100.00
2018-09-18T23:10:41.830Z,100.00
2018-09-18T23:13:10.928Z,100.00
2018-09-18T23:15:41.084Z,100.00
2018-09-18T23:18:10.532Z,100.00
2018-09-18T23:20:41.379Z,100.00
2018-09-18T23:23:10.817Z,100.00
2018-09-18T23:25:40.466Z,100.00
2018-09-18T23:28:09.809Z,100.00
2018-09-18T23:30:39.436Z,100.00
2018-09-18T23:33:08.736Z,100.00
2018-09-18T23:35:38.250Z,100.00
2018-09-18T23:38:07.551Z,100.00
2018-09-18T23:40:36.857Z,100.00
2018-09-18T23:43:06.779Z,100.00
2018-09-18T23:45:36.168Z,100.00
2018-09-18T23:48:05.254Z,100.00
2018-09-18T23:50:34.650Z,100.00
2018-09-18T23:53:04.073Z,100.00
2018-09-18T23:55:33.366Z,100.00
2018-09-18T23:58:02.479Z,100.00
